首页
METAR-TAF:

METAR-TAF

机场 :

Altenstadt, 德国

纬度: 47-50N, 经度: 010-52E, 海拔: 739米

当前天气观测

该预报发布于33分钟前的04:20 UTC
静风
温度 -5°C
湿度 100%
气压 1002 hPa
能见度10公里或以上

METAR: ETHA 140420Z 00000KT 9999 M05/M05 Q1002 BLACKBLU+

时间: 05:53 (04:53 UTC)

预报

该预报发布于11小时和32分钟前的17:21 UTC
预报有效从13日的 15点(UTC)到 13日的 24点(UTC)
风速5节,风向西转西南
能见度10公里或以上
少量云层高于1000英尺
散云层高于5000英尺
多云层高于12000英尺
成为
从 13日的 15点(UTC)到 13日的 16点(UTC)
风速3节,风向多变
能見度: 1820
少量云层高于5000英尺
散云层高于12000英尺

TAF: ETHA 131721Z 1315/1324 25005KT 9999 NSW FEW010 SCT050 BKN120 BECMG 1315/1316 VRB03KT 9999 NSW FEW050 SCT120 CANCEL 1820

超过4000个机场的气象观测和天气预报(METAR&TAF报告)。

可查询的气象台以黄色和红色小点在地图上表示。

将鼠标移到小点上方,可查看气象台名称。

然后点击查看天气观测和预报。

如需切换地图:点击带黑十字的绿色按钮放大地图;点击带横线的绿色按钮缩小地图;或者点击绿色箭头查看邻近地区的地图。


METAR-TAF: